Time;durP1;ratioP1;P1;durP2;ratioP2;P2;SDS_P1;SDS_P2;PMS_P1;PMS_P2;Temp;Humidity;BMP_temperature;BMP_pressure;BME280_temperature;BME280_humidity;BME280_pressure;Samples;Min_cycle;Max_cycle;Signal;HPM_P1;HPM_P2
2023/08/05 00:00:15;;;;;;;1.08;0.98;;;18.50;99.90;18.50;100395.00;;;;4993147;27;109427;-64
2023/08/05 00:02:41;;;;;;;1.63;1.48;;;18.40;99.90;18.50;100385.00;;;;5003629;27;87808;-65
2023/08/05 00:05:16;;;;;;;3.08;1.58;;;18.40;99.90;18.40;100386.00;;;;4992149;27;116202;-64
2023/08/05 00:07:41;;;;;;;2.00;1.55;;;18.40;99.90;18.40;100384.00;;;;4992634;27;117585;-64
2023/08/05 00:10:08;;;;;;;2.38;1.40;;;18.30;99.90;18.40;100378.00;;;;4997298;27;87139;-65
2023/08/05 00:12:33;;;;;;;2.50;1.73;;;18.30;99.90;18.40;100386.00;;;;4997344;27;87887;-66
2023/08/05 00:15:00;;;;;;;1.65;1.55;;;18.30;99.90;18.40;100377.00;;;;4994916;27;117687;-65
2023/08/05 00:17:26;;;;;;;1.08;0.95;;;18.30;99.90;18.30;100375.00;;;;4989513;27;108889;-64
2023/08/05 00:19:52;;;;;;;3.88;1.35;;;18.20;99.90;18.30;100379.00;;;;4990081;27;109676;-65
2023/08/05 00:22:17;;;;;;;2.75;0.77;;;18.20;99.90;18.30;100380.00;;;;4999668;27;109132;-65
2023/08/05 00:24:43;;;;;;;2.60;1.20;;;18.20;99.90;18.20;100382.00;;;;4988098;27;117262;-65
2023/08/05 00:27:09;;;;;;;1.70;1.60;;;18.20;99.90;18.20;100387.00;;;;4992863;27;117478;-65
2023/08/05 00:29:34;;;;;;;1.70;1.55;;;18.10;99.90;18.20;100384.00;;;;4991236;27;98172;-65
2023/08/05 00:32:00;;;;;;;2.50;1.85;;;18.10;99.90;18.20;100380.00;;;;4991523;27;108183;-65
2023/08/05 00:34:26;;;;;;;1.63;1.52;;;18.10;99.90;18.10;100383.00;;;;4989760;27;115760;-65
2023/08/05 00:36:51;;;;;;;1.33;1.17;;;18.00;99.90;18.00;100395.00;;;;4994214;27;115528;-64
2023/08/05 00:39:18;;;;;;;1.67;1.58;;;18.00;99.90;18.00;100382.00;;;;4995597;27;110961;-65
2023/08/05 00:41:43;;;;;;;1.85;1.65;;;17.90;99.90;17.90;100385.00;;;;5003489;27;88701;-64
2023/08/05 00:44:09;;;;;;;1.63;1.48;;;17.90;99.90;17.90;100376.00;;;;4991730;27;113860;-64
2023/08/05 00:46:35;;;;;;;1.75;1.35;;;17.80;99.90;17.90;100372.00;;;;4987469;27;117641;-67
2023/08/05 00:49:00;;;;;;;1.88;1.33;;;17.70;99.90;17.80;100370.00;;;;4987976;27;109241;-64
2023/08/05 00:51:26;;;;;;;2.83;1.95;;;17.70;99.90;17.80;100367.00;;;;4991237;27;107361;-65
2023/08/05 00:53:52;;;;;;;2.38;2.15;;;17.70;99.90;17.80;100370.00;;;;4989238;27;116585;-65
2023/08/05 00:56:18;;;;;;;3.42;2.08;;;17.70;99.90;17.70;100376.00;;;;4992447;27;88173;-65
2023/08/05 00:58:44;;;;;;;2.30;1.95;;;17.60;99.90;17.70;100365.00;;;;5002722;27;102075;-65
2023/08/05 01:01:10;;;;;;;1.77;1.30;;;17.60;99.90;17.70;100365.00;;;;4989652;27;109519;-65
2023/08/05 01:03:36;;;;;;;2.13;1.88;;;17.60;99.90;17.70;100367.00;;;;4995482;27;88736;-64
2023/08/05 01:06:05;;;;;;;3.13;1.55;;;17.60;99.90;17.60;100361.00;;;;4993994;27;88538;-64
2023/08/05 01:08:31;;;;;;;1.40;1.25;;;17.60;99.90;17.60;100364.00;;;;4991957;27;108196;-64
2023/08/05 01:10:58;;;;;;;1.30;1.20;;;17.50;99.90;17.60;100365.00;;;;4990964;27;87827;-67
2023/08/05 01:13:24;;;;;;;1.52;1.23;;;17.50;99.90;17.60;100367.00;;;;4990698;27;108431;-65
2023/08/05 01:15:49;;;;;;;1.90;1.70;;;17.50;99.90;17.60;100362.00;;;;4993674;27;115772;-65
2023/08/05 01:18:17;;;;;;;1.92;1.52;;;17.50;99.90;17.60;100357.00;;;;5002004;27;108419;-65
2023/08/05 01:20:50;;;;;;;2.47;2.08;;;17.50;99.90;17.60;100352.00;;;;4999565;27;88175;-64
2023/08/05 01:23:51;;;;;;;1.77;1.65;;;17.50;99.90;17.60;100363.00;;;;4999194;27;109015;-64
2023/08/05 01:26:16;;;;;;;2.05;1.85;;;17.60;99.90;17.60;100357.00;;;;4994682;27;87807;-64
2023/08/05 01:28:45;;;;;;;1.63;1.52;;;17.50;99.90;17.60;100358.00;;;;4990386;27;109092;-64
2023/08/05 01:31:14;;;;;;;4.43;2.25;;;17.50;99.90;17.60;100365.00;;;;5002569;27;88826;-64
2023/08/05 01:33:43;;;;;;;1.63;1.52;;;17.50;99.90;17.60;100362.00;;;;4994201;27;89404;-65
2023/08/05 01:36:19;;;;;;;2.25;1.60;;;17.50;99.90;17.60;100362.00;;;;4999769;27;118173;-65
2023/08/05 01:38:46;;;;;;;1.67;1.48;;;17.50;99.90;17.50;100362.00;;;;4996275;27;87591;-65
2023/08/05 01:41:12;;;;;;;1.38;1.27;;;17.50;99.90;17.50;100354.00;;;;4998915;27;87668;-65
2023/08/05 01:43:37;;;;;;;2.08;1.50;;;17.40;99.90;17.50;100360.00;;;;4995429;27;112163;-64
2023/08/05 01:46:03;;;;;;;2.42;1.95;;;17.40;99.90;17.40;100354.00;;;;4993515;27;117192;-65
2023/08/05 01:48:29;;;;;;;2.33;1.55;;;17.40;99.90;17.40;100353.00;;;;4998462;27;110125;-65
2023/08/05 01:50:54;;;;;;;2.00;1.80;;;17.40;99.90;17.40;100359.00;;;;4992645;27;107288;-64
2023/08/05 01:53:20;;;;;;;2.20;1.50;;;17.30;99.90;17.40;100340.00;;;;5000661;27;116934;-63
2023/08/05 01:55:46;;;;;;;2.15;1.92;;;17.30;99.90;17.40;100345.00;;;;5004353;27;116736;-65
2023/08/05 01:58:11;;;;;;;3.20;2.15;;;17.30;99.90;17.40;100349.00;;;;4995564;27;110937;-64
2023/08/05 02:00:37;;;;;;;2.03;1.92;;;17.30;99.90;17.40;100360.00;;;;4995603;27;87930;-64
2023/08/05 02:03:03;;;;;;;2.40;1.73;;;17.30;99.90;17.40;100355.00;;;;4993119;27;116524;-64
2023/08/05 02:05:28;;;;;;;1.52;1.42;;;17.30;99.90;17.40;100356.00;;;;4995319;27;114897;-64
2023/08/05 02:07:54;;;;;;;1.73;1.42;;;17.30;99.90;17.40;100358.00;;;;5000072;27;109247;-64
2023/08/05 02:10:20;;;;;;;3.50;2.10;;;17.30;99.90;17.40;100359.00;;;;4996153;27;109734;-64
2023/08/05 02:12:45;;;;;;;2.60;1.88;;;17.30;99.90;17.30;100361.00;;;;4991172;27;87805;-64
2023/08/05 02:15:11;;;;;;;3.10;1.80;;;17.30;99.90;17.30;100368.00;;;;5005779;27;88513;-64
2023/08/05 02:17:37;;;;;;;1.80;1.63;;;17.20;99.90;17.30;100351.00;;;;4996161;27;110632;-65
2023/08/05 02:20:04;;;;;;;2.63;2.42;;;17.20;99.90;17.30;100354.00;;;;4994386;27;108670;-64
2023/08/05 02:22:29;;;;;;;1.95;1.75;;;17.20;99.90;17.30;100358.00;;;;4990646;27;88190;-64
2023/08/05 02:24:55;;;;;;;1.55;1.35;;;17.20;99.90;17.30;100346.00;;;;4996336;27;117395;-65
2023/08/05 02:27:21;;;;;;;2.05;1.88;;;17.20;99.90;17.30;100355.00;;;;4995662;27;110781;-65
2023/08/05 02:29:46;;;;;;;1.63;1.10;;;17.20;99.90;17.30;100348.00;;;;4992909;27;108742;-65
2023/08/05 02:32:12;;;;;;;1.55;1.45;;;17.20;99.90;17.30;100349.00;;;;4991460;27;118710;-65
2023/08/05 02:34:38;;;;;;;1.63;1.48;;;17.20;99.90;17.20;100350.00;;;;4994693;27;116759;-66
2023/08/05 02:37:04;;;;;;;2.35;1.67;;;17.20;99.90;17.20;100350.00;;;;4997137;27;110944;-65
2023/08/05 02:39:29;;;;;;;3.05;1.30;;;17.10;99.90;17.20;100345.00;;;;4997848;27;87813;-65
2023/08/05 02:41:55;;;;;;;3.78;2.05;;;17.10;99.90;17.20;100342.00;;;;4994628;27;116970;-65
2023/08/05 02:44:20;;;;;;;3.10;1.73;;;17.10;99.90;17.10;100348.00;;;;4991622;28;117981;-65
2023/08/05 02:46:46;;;;;;;4.40;1.70;;;17.10;99.90;17.10;100342.00;;;;4995946;27;110518;-65
2023/08/05 02:49:22;;;;;;;2.05;1.75;;;17.00;99.90;17.00;100337.00;;;;4997077;27;108865;-65
2023/08/05 02:51:47;;;;;;;2.03;1.80;;;17.00;99.90;17.00;100339.00;;;;5004835;27;92223;-65
2023/08/05 02:54:13;;;;;;;2.58;1.73;;;16.90;99.90;17.00;100345.00;;;;4990336;27;88536;-65
2023/08/05 02:56:39;;;;;;;2.88;2.17;;;16.90;99.90;16.90;100338.00;;;;4990546;27;108379;-65
2023/08/05 02:59:05;;;;;;;1.67;1.55;;;16.90;99.90;16.90;100335.00;;;;4994426;27;87767;-65
2023/08/05 03:01:31;;;;;;;3.67;1.92;;;16.80;99.90;16.80;100339.00;;;;4992419;28;116961;-65
2023/08/05 03:03:56;;;;;;;4.47;2.05;;;16.80;99.90;16.80;100344.00;;;;4995467;27;116802;-64
2023/08/05 03:06:22;;;;;;;2.60;1.83;;;16.80;99.90;16.80;100340.00;;;;4993458;27;110166;-64
2023/08/05 03:08:47;;;;;;;3.45;1.92;;;16.70;99.90;16.70;100335.00;;;;4993233;27;108443;-64
2023/08/05 03:11:13;;;;;;;2.10;1.88;;;16.70;99.90;16.70;100335.00;;;;5004065;27;116710;-65
2023/08/05 03:13:39;;;;;;;3.28;1.90;;;16.60;99.90;16.70;100343.00;;;;4994278;27;116647;-66
2023/08/05 03:16:13;;;;;;;1.75;1.58;;;16.60;99.90;16.60;100344.00;;;;4990134;27;109588;-65
2023/08/05 03:18:39;;;;;;;4.80;1.95;;;16.60;99.90;16.60;100348.00;;;;4995758;27;87723;-64
2023/08/05 03:21:04;;;;;;;2.55;1.95;;;16.60;99.90;16.60;100353.00;;;;4992148;27;109358;-64
2023/08/05 03:23:30;;;;;;;2.13;1.92;;;16.50;99.90;16.60;100363.00;;;;4986553;27;117309;-64
2023/08/05 03:25:56;;;;;;;1.65;1.55;;;16.50;99.90;16.50;100365.00;;;;4995179;27;110863;-64
2023/08/05 03:28:22;;;;;;;1.70;1.60;;;16.50;99.90;16.50;100368.00;;;;4996457;27;109449;-67
2023/08/05 03:30:47;;;;;;;1.70;1.60;;;16.40;99.90;16.50;100368.00;;;;4999497;27;108153;-65
2023/08/05 03:33:13;;;;;;;3.20;1.50;;;16.40;99.90;16.40;100368.00;;;;4992593;27;99038;-64
2023/08/05 03:35:43;;;;;;;1.98;1.63;;;16.40;99.90;16.40;100366.00;;;;4992426;27;109033;-64
2023/08/05 03:38:09;;;;;;;4.18;1.33;;;16.40;99.90;16.40;100372.00;;;;4991087;27;94567;-64
2023/08/05 03:40:34;;;;;;;2.50;1.75;;;16.40;99.90;16.40;100379.00;;;;4994212;27;99156;-64
2023/08/05 03:43:01;;;;;;;1.92;1.40;;;16.30;99.90;16.40;100379.00;;;;4995850;27;117953;-64
2023/08/05 03:45:27;;;;;;;3.15;1.70;;;16.40;99.90;16.40;100388.00;;;;4996825;27;87888;-65
2023/08/05 03:47:55;;;;;;;1.73;1.35;;;16.30;99.90;16.40;100395.00;;;;5013464;27;107907;-64
2023/08/05 03:50:20;;;;;;;1.92;1.50;;;16.40;99.90;16.40;100384.00;;;;4993957;27;87214;-64
2023/08/05 03:52:48;;;;;;;1.00;1.00;;;16.30;99.90;16.40;100387.00;;;;4998152;27;88502;-63
2023/08/05 03:55:14;;;;;;;1.20;1.00;;;16.30;99.90;16.40;100384.00;;;;4992896;27;87902;-65
2023/08/05 03:57:41;;;;;;;1.77;1.65;;;16.30;99.90;16.50;100372.00;;;;4993647;27;100710;-65
2023/08/05 04:00:11;;;;;;;1.48;1.38;;;16.40;99.90;16.50;100375.00;;;;4995739;27;117122;-64
2023/08/05 04:02:37;;;;;;;0.93;0.93;;;16.40;99.90;16.50;100377.00;;;;4992270;27;88691;-65
2023/08/05 04:05:04;;;;;;;1.10;1.08;;;16.40;99.90;16.50;100378.00;;;;4996136;27;99782;-65
2023/08/05 04:07:31;;;;;;;2.75;1.40;;;16.40;99.90;16.50;100376.00;;;;5000763;27;87493;-65
2023/08/05 04:09:56;;;;;;;3.10;0.75;;;16.40;99.90;16.50;100386.00;;;;4990549;28;90014;-64
2023/08/05 04:12:22;;;;;;;1.33;1.23;;;16.50;99.90;16.60;100391.00;;;;4990301;27;88170;-65
2023/08/05 04:14:50;;;;;;;1.67;1.27;;;16.50;99.90;16.60;100388.00;;;;4989603;27;99670;-65
2023/08/05 04:17:16;;;;;;;2.70;1.40;;;16.50;99.90;16.60;100394.00;;;;4993881;27;88016;-65
2023/08/05 04:19:47;;;;;;;1.63;1.17;;;16.50;99.90;16.70;100403.00;;;;4988011;27;89183;-65
2023/08/05 04:22:13;;;;;;;1.38;0.93;;;16.60;99.90;16.70;100400.00;;;;4995164;27;88929;-65
2023/08/05 04:24:41;;;;;;;1.23;1.10;;;16.60;99.90;16.80;100402.00;;;;5002105;27;87753;-65
2023/08/05 04:27:08;;;;;;;3.85;1.70;;;16.70;99.90;16.80;100389.00;;;;4998843;27;87631;-64
2023/08/05 04:29:33;;;;;;;4.22;1.33;;;16.70;99.90;16.90;100394.00;;;;5015118;27;89260;-64
2023/08/05 04:31:59;;;;;;;0.93;0.88;;;16.70;99.90;16.90;100389.00;;;;4996141;27;108850;-64
2023/08/05 04:34:25;;;;;;;1.23;1.13;;;16.80;99.90;16.90;100379.00;;;;4993438;27;87805;-65
2023/08/05 04:36:51;;;;;;;0.98;0.95;;;16.80;99.90;17.00;100381.00;;;;5002054;27;87915;-65
2023/08/05 04:39:21;;;;;;;1.20;1.05;;;16.80;99.90;17.00;100390.00;;;;5003149;27;87244;-64
2023/08/05 04:41:47;;;;;;;1.58;1.13;;;16.90;99.90;17.10;100383.00;;;;4994647;27;89742;-65
2023/08/05 04:44:35;;;;;;;1.08;1.08;;;17.00;99.90;17.10;100378.00;;;;5008328;27;88014;-65
2023/08/05 04:47:00;;;;;;;1.00;0.82;;;17.00;99.90;17.10;100388.00;;;;4998638;27;108520;-65
2023/08/05 04:49:26;;;;;;;2.40;1.52;;;17.00;99.90;17.20;100387.00;;;;5002397;27;118474;-64
2023/08/05 04:51:52;;;;;;;3.03;1.02;;;17.10;99.90;17.20;100383.00;;;;4987160;27;115226;-65
2023/08/05 04:54:17;;;;;;;1.88;1.30;;;17.10;99.90;17.30;100372.00;;;;5004442;27;109682;-65
2023/08/05 04:56:43;;;;;;;1.20;1.10;;;17.20;99.90;17.30;100384.00;;;;4994148;27;108292;-64
2023/08/05 04:59:08;;;;;;;1.15;1.05;;;17.20;99.90;17.40;100377.00;;;;4995879;27;117802;-64
2023/08/05 05:01:34;;;;;;;7.63;0.90;;;17.20;99.90;17.40;100381.00;;;;4992301;27;117831;-64
2023/08/05 05:04:00;;;;;;;1.02;0.80;;;17.30;99.90;17.40;100379.00;;;;4992412;27;87000;-64
2023/08/05 05:06:25;;;;;;;2.40;1.38;;;17.30;99.90;17.50;100384.00;;;;4997214;27;87570;-64
2023/08/05 05:08:51;;;;;;;0.70;0.70;;;17.30;99.90;17.50;100387.00;;;;4993842;27;116956;-64
2023/08/05 05:11:17;;;;;;;1.15;1.05;;;17.40;99.90;17.50;100386.00;;;;4989702;27;116367;-65
2023/08/05 05:13:43;;;;;;;1.48;1.05;;;17.40;99.90;17.60;100398.00;;;;4992165;27;111478;-64
2023/08/05 05:16:10;;;;;;;1.05;1.05;;;17.50;99.90;17.60;100402.00;;;;4992854;27;87814;-64
2023/08/05 05:18:36;;;;;;;1.20;0.90;;;17.50;99.90;17.60;100396.00;;;;4995336;27;88029;-65
2023/08/05 05:21:02;;;;;;;1.33;1.20;;;17.50;99.90;17.70;100405.00;;;;4994633;27;116710;-64
2023/08/05 05:23:27;;;;;;;5.75;1.10;;;17.60;99.90;17.70;100397.00;;;;4992427;27;110432;-64
2023/08/05 05:25:53;;;;;;;0.80;0.80;;;17.60;99.90;17.80;100397.00;;;;4990850;27;108100;-64
2023/08/05 05:28:19;;;;;;;2.15;1.05;;;17.70;99.90;17.80;100395.00;;;;4993963;27;101573;-65
2023/08/05 05:30:44;;;;;;;1.00;1.00;;;17.70;99.90;17.90;100389.00;;;;4996241;27;117212;-63
2023/08/05 05:33:11;;;;;;;1.25;1.08;;;17.70;99.90;17.90;100393.00;;;;4991493;27;111318;-65
2023/08/05 05:35:37;;;;;;;0.85;0.80;;;17.80;99.90;18.00;100394.00;;;;4992500;27;88636;-65
2023/08/05 05:38:02;;;;;;;0.73;0.57;;;17.90;99.90;18.10;100390.00;;;;4993926;27;116367;-65
2023/08/05 05:40:28;;;;;;;0.60;0.50;;;17.90;99.90;18.10;100388.00;;;;4990318;27;118087;-65
2023/08/05 05:42:53;;;;;;;1.58;0.82;;;18.00;99.90;18.20;100387.00;;;;4992590;27;109417;-65
2023/08/05 05:45:21;;;;;;;2.13;1.10;;;18.00;99.90;18.30;100388.00;;;;4990724;27;87762;-64
2023/08/05 05:47:46;;;;;;;1.55;0.90;;;18.10;99.90;18.40;100384.00;;;;4991508;27;88813;-64
2023/08/05 05:50:12;;;;;;;0.60;0.60;;;18.20;99.90;18.40;100381.00;;;;4988845;27;93353;-64
2023/08/05 05:52:38;;;;;;;1.73;1.00;;;18.30;99.90;18.50;100378.00;;;;4989730;27;86939;-64
2023/08/05 05:55:04;;;;;;;1.15;1.05;;;18.30;99.90;18.60;100387.00;;;;4991734;27;108347;-64
2023/08/05 05:57:30;;;;;;;0.73;0.63;;;18.40;99.90;18.70;100374.00;;;;4987267;27;106439;-64
2023/08/05 05:59:58;;;;;;;4.85;0.70;;;18.50;99.90;18.90;100380.00;;;;4986940;27;116344;-64
2023/08/05 06:02:24;;;;;;;0.70;0.70;;;18.70;99.90;19.00;100375.00;;;;4994606;27;87550;-65
2023/08/05 06:04:50;;;;;;;1.30;0.77;;;18.80;99.90;19.10;100377.00;;;;4992090;27;87760;-65
2023/08/05 06:07:16;;;;;;;0.68;0.60;;;18.90;99.90;19.20;100387.00;;;;4986536;27;98079;-64
2023/08/05 06:09:41;;;;;;;0.75;0.75;;;19.00;99.90;19.30;100391.00;;;;4988355;27;88091;-64
2023/08/05 06:12:10;;;;;;;0.80;0.80;;;19.10;99.90;19.40;100395.00;;;;4987606;27;110645;-64
2023/08/05 06:14:36;;;;;;;0.70;0.70;;;19.20;99.90;19.50;100393.00;;;;4990839;27;88768;-64
2023/08/05 06:17:03;;;;;;;0.95;0.93;;;19.30;99.90;19.60;100405.00;;;;4991876;27;88011;-64
2023/08/05 06:19:28;;;;;;;0.90;0.70;;;19.40;99.90;19.70;100393.00;;;;4990246;27;100542;-65
2023/08/05 06:21:54;;;;;;;0.88;0.80;;;19.40;99.90;19.90;100397.00;;;;4990551;27;110310;-64
2023/08/05 06:24:20;;;;;;;3.83;1.02;;;19.70;99.90;20.10;100381.00;;;;4987420;27;89580;-64
2023/08/05 06:26:45;;;;;;;1.75;1.02;;;19.90;99.90;20.30;100391.00;;;;4991863;27;116897;-64
2023/08/05 06:29:11;;;;;;;7.93;0.82;;;20.00;99.90;20.50;100388.00;;;;4983214;27;117733;-64
2023/08/05 06:31:37;;;;;;;0.73;0.52;;;20.20;99.90;20.60;100390.00;;;;4991043;27;111188;-63
2023/08/05 06:34:02;;;;;;;1.92;1.38;;;20.40;99.90;20.70;100391.00;;;;4989481;27;105737;-64
2023/08/05 06:36:28;;;;;;;1.00;0.93;;;20.50;99.90;20.80;100389.00;;;;4984091;27;89562;-64
2023/08/05 06:38:54;;;;;;;1.35;0.90;;;20.60;99.90;20.90;100382.00;;;;4096589;27;10000820;-64
2023/08/05 06:41:19;;;;;;;1.20;0.80;;;20.70;99.90;20.90;100386.00;;;;4985509;27;87225;-64
2023/08/05 06:43:45;;;;;;;0.77;0.77;;;20.70;99.90;21.00;100386.00;;;;4103476;27;10001064;-65
2023/08/05 06:46:11;;;;;;;1.58;1.08;;;20.80;99.90;21.10;100383.00;;;;4987415;28;107416;-64
2023/08/05 06:48:36;;;;;;;1.75;0.60;;;20.90;99.90;21.20;100376.00;;;;4988518;27;118420;-64
2023/08/05 06:51:02;;;;;;;0.65;0.63;;;21.00;99.90;21.30;100369.00;;;;4987276;27;118269;-64
2023/08/05 06:53:28;;;;;;;1.33;0.95;;;21.10;99.90;21.40;100367.00;;;;4989025;27;110606;-64
2023/08/05 06:56:13;;;;;;;3.25;0.98;;;21.20;99.90;21.60;100370.00;;;;4987625;27;92472;-65
2023/08/05 06:58:39;;;;;;;1.45;0.90;;;21.30;99.90;21.70;100372.00;;;;4993253;27;88813;-65
2023/08/05 07:01:05;;;;;;;0.50;0.50;;;21.50;99.90;21.90;100376.00;;;;4991230;27;118233;-65
2023/08/05 07:03:30;;;;;;;0.60;0.50;;;21.60;99.90;22.00;100373.00;;;;4990712;27;89004;-65
2023/08/05 07:05:56;;;;;;;1.60;1.20;;;21.80;99.90;22.10;100377.00;;;;4985361;27;89049;-64
2023/08/05 07:08:23;;;;;;;1.95;1.00;;;21.90;99.90;22.20;100385.00;;;;4984322;27;117810;-64
2023/08/05 07:10:56;;;;;;;10.07;4.43;;;21.90;99.90;22.20;100380.00;;;;4988587;27;88452;-64
2023/08/05 07:13:22;;;;;;;3.08;1.20;;;22.00;99.90;22.20;100384.00;;;;4096337;27;10001141;-64
2023/08/05 07:15:47;;;;;;;3.60;0.90;;;22.00;99.40;22.30;100388.00;;;;4990169;27;88449;-63
2023/08/05 07:18:13;;;;;;;0.70;0.70;;;22.10;99.20;22.30;100385.00;;;;4988903;27;87923;-63
2023/08/05 07:20:42;;;;;;;1.85;1.00;;;22.10;98.90;22.30;100371.00;;;;4986912;27;87700;-65
2023/08/05 07:23:08;;;;;;;1.08;0.60;;;22.10;98.50;22.30;100384.00;;;;4990170;27;88031;-63
2023/08/05 07:25:33;;;;;;;0.50;0.45;;;22.10;98.30;22.30;100383.00;;;;4987119;27;117880;-64
2023/08/05 07:27:59;;;;;;;1.90;0.98;;;22.20;98.20;22.40;100378.00;;;;4987154;28;109311;-64
2023/08/05 07:30:25;;;;;;;1.50;0.75;;;22.20;98.20;22.50;100384.00;;;;4986346;27;107558;-64
2023/08/05 07:32:50;;;;;;;0.65;0.55;;;22.30;98.10;22.50;100377.00;;;;4984822;27;117944;-63
2023/08/05 07:35:16;;;;;;;0.50;0.50;;;22.30;98.00;22.60;100382.00;;;;4984260;27;117859;-63
2023/08/05 07:37:42;;;;;;;0.85;0.68;;;22.40;97.80;22.70;100376.00;;;;4984452;27;110561;-64
2023/08/05 07:40:12;;;;;;;1.33;0.60;;;22.40;97.50;22.80;100380.00;;;;4991382;27;87758;-64
2023/08/05 07:42:40;;;;;;;0.40;0.40;;;22.60;96.90;22.90;100383.00;;;;4986847;27;89266;-64
2023/08/05 07:45:11;;;;;;;0.95;0.70;;;22.60;96.80;23.00;100390.00;;;;4981636;27;88974;-63
2023/08/05 07:47:40;;;;;;;0.40;0.40;;;22.70;96.60;23.10;100397.00;;;;4989566;27;88235;-64
2023/08/05 07:50:07;;;;;;;1.02;0.60;;;22.80;96.30;23.20;100395.00;;;;4983934;27;87977;-64
2023/08/05 07:52:33;;;;;;;0.80;0.80;;;22.90;96.00;23.30;100406.00;;;;4992737;27;96933;-65
2023/08/05 07:54:59;;;;;;;0.88;0.50;;;23.00;95.80;23.30;100409.00;;;;4993855;27;87288;-64
2023/08/05 07:57:28;;;;;;;1.77;0.90;;;23.00;95.60;23.40;100402.00;;;;4989916;27;88184;-64
2023/08/05 07:59:55;;;;;;;0.70;0.70;;;23.10;95.40;23.50;100404.00;;;;4987772;27;87875;-64
2023/08/05 08:02:20;;;;;;;1.02;0.70;;;23.20;95.30;23.50;100404.00;;;;4984380;27;89632;-64
2023/08/05 08:04:48;;;;;;;0.70;0.70;;;23.30;95.10;23.60;100402.00;;;;4990677;27;118586;-63
2023/08/05 08:07:14;;;;;;;1.38;0.70;;;23.30;94.90;23.60;100393.00;;;;4990979;27;87633;-63
2023/08/05 08:09:40;;;;;;;0.60;0.60;;;23.30;94.80;23.70;100397.00;;;;4990768;27;106633;-65
2023/08/05 08:12:06;;;;;;;1.00;0.80;;;23.40;94.60;23.70;100395.00;;;;4989548;27;117430;-65
2023/08/05 08:14:32;;;;;;;1.65;1.10;;;23.40;94.40;23.80;100397.00;;;;4993561;27;88063;-64
2023/08/05 08:16:59;;;;;;;1.40;0.70;;;23.50;94.30;23.80;100400.00;;;;4989113;27;109895;-65
2023/08/05 08:19:24;;;;;;;1.20;0.63;;;23.50;94.10;23.80;100397.00;;;;4988884;27;87345;-64
2023/08/05 08:21:50;;;;;;;1.23;0.70;;;23.50;93.90;23.80;100403.00;;;;4989278;27;105228;-64
2023/08/05 08:24:16;;;;;;;1.38;0.68;;;23.60;93.70;23.80;100406.00;;;;4986507;27;87832;-65
2023/08/05 08:26:41;;;;;;;1.42;0.70;;;23.50;93.50;23.70;100407.00;;;;4994184;27;96186;-65
2023/08/05 08:29:07;;;;;;;0.80;0.80;;;23.50;93.50;23.70;100409.00;;;;4986218;27;109181;-65
2023/08/05 08:31:33;;;;;;;0.93;0.93;;;23.50;93.50;23.80;100400.00;;;;4996137;27;117279;-65
2023/08/05 08:33:59;;;;;;;0.52;0.52;;;23.50;93.40;23.80;100405.00;;;;4989831;27;88593;-64
2023/08/05 08:36:26;;;;;;;0.93;0.70;;;23.50;93.20;23.80;100397.00;;;;4982119;27;109627;-64
2023/08/05 08:38:52;;;;;;;0.70;0.70;;;23.50;93.00;23.80;100397.00;;;;4989798;27;87889;-64
2023/08/05 08:41:18;;;;;;;0.45;0.43;;;23.50;92.90;23.90;100382.00;;;;4988183;27;89555;-64
2023/08/05 08:43:44;;;;;;;7.00;1.15;;;23.60;92.90;24.00;100394.00;;;;4991580;27;88710;-65
2023/08/05 08:46:12;;;;;;;0.45;0.45;;;23.70;92.90;24.10;100390.00;;;;4986444;27;96619;-65
2023/08/05 08:48:40;;;;;;;0.80;0.65;;;23.70;92.60;24.10;100393.00;;;;4984797;27;87958;-66
2023/08/05 08:51:07;;;;;;;2.20;0.98;;;23.80;92.60;24.10;100379.00;;;;4995518;27;117128;-65
2023/08/05 08:53:33;;;;;;;0.30;0.30;;;23.80;92.40;24.10;100379.00;;;;4986429;27;88579;-65
2023/08/05 08:55:59;;;;;;;0.32;0.30;;;23.90;92.30;24.10;100369.00;;;;4986137;27;96692;-64
2023/08/05 08:58:25;;;;;;;0.73;0.60;;;23.90;91.70;24.10;100373.00;;;;4983966;27;88056;-66
2023/08/05 09:00:51;;;;;;;1.15;0.52;;;23.90;91.20;24.10;100372.00;;;;4985831;27;115360;-65
2023/08/05 09:03:18;;;;;;;1.67;0.60;;;23.90;91.10;24.10;100373.00;;;;4992711;27;117594;-65
2023/08/05 09:05:49;;;;;;;0.85;0.35;;;23.90;91.10;24.10;100361.00;;;;4980197;27;87617;-64
2023/08/05 09:08:15;;;;;;;0.68;0.55;;;23.80;91.10;24.20;100373.00;;;;4991785;27;87132;-64
2023/08/05 09:10:44;;;;;;;0.55;0.55;;;23.90;91.00;24.20;100361.00;;;;4994590;27;103014;-65
2023/08/05 09:13:10;;;;;;;0.60;0.47;;;24.00;90.80;24.30;100366.00;;;;4990732;27;95233;-63
2023/08/05 09:15:37;;;;;;;1.30;0.70;;;24.00;90.80;24.40;100359.00;;;;4989338;27;89679;-65
2023/08/05 09:18:04;;;;;;;0.93;0.55;;;24.10;90.40;24.40;100358.00;;;;4996509;27;87689;-65
2023/08/05 09:20:34;;;;;;;0.40;0.40;;;24.10;90.40;24.50;100379.00;;;;4986313;27;88109;-65
2023/08/05 09:23:03;;;;;;;0.93;0.57;;;24.10;90.50;24.60;100375.00;;;;4987705;27;87907;-65
2023/08/05 09:25:31;;;;;;;3.47;0.75;;;24.30;90.60;24.70;100382.00;;;;4989560;27;87824;-65
2023/08/05 09:27:59;;;;;;;0.57;0.32;;;24.40;90.40;24.80;100382.00;;;;4999776;27;87941;-66
2023/08/05 09:30:26;;;;;;;0.70;0.70;;;24.50;90.20;24.90;100386.00;;;;4985510;27;89158;-64
2023/08/05 09:32:55;;;;;;;0.98;0.77;;;24.60;90.00;25.00;100384.00;;;;4990213;27;87321;-64
2023/08/05 09:35:21;;;;;;;1.30;0.60;;;24.60;89.60;25.00;100382.00;;;;4991103;27;87977;-64
2023/08/05 09:37:49;;;;;;;1.15;0.55;;;24.70;88.90;25.10;100376.00;;;;4992212;27;87750;-64
2023/08/05 09:40:31;;;;;;;1.00;0.73;;;24.80;88.70;25.10;100369.00;;;;4989297;27;89808;-64
2023/08/05 09:42:59;;;;;;;0.90;0.50;;;24.80;88.40;25.20;100375.00;;;;4994717;27;89035;-63
2023/08/05 09:45:26;;;;;;;3.45;0.85;;;24.80;87.80;25.10;100369.00;;;;4990468;27;88034;-64
2023/08/05 09:48:03;;;;;;;0.85;0.50;;;24.90;86.50;25.10;100373.00;;;;4996775;27;87992;-64
2023/08/05 09:50:31;;;;;;;1.05;0.95;;;24.80;86.60;25.10;100368.00;;;;4991476;27;87777;-65
2023/08/05 09:53:01;;;;;;;0.32;0.28;;;24.80;86.90;25.10;100368.00;;;;4995449;27;87807;-65
2023/08/05 09:55:28;;;;;;;1.70;0.88;;;24.80;86.50;25.20;100368.00;;;;4994052;27;87872;-65
2023/08/05 09:57:55;;;;;;;0.82;0.45;;;24.90;86.50;25.20;100364.00;;;;4986939;27;109998;-65
2023/08/05 10:00:21;;;;;;;11.20;0.57;;;24.90;86.00;25.10;100361.00;;;;4989383;27;88696;-65
2023/08/05 10:02:47;;;;;;;0.60;0.57;;;24.90;85.60;25.10;100349.00;;;;4991274;27;116942;-65
2023/08/05 10:05:13;;;;;;;0.25;0.22;;;24.80;85.70;25.10;100356.00;;;;4992995;27;109174;-65
2023/08/05 10:07:41;;;;;;;0.40;0.40;;;24.80;85.20;25.10;100365.00;;;;4987615;27;88311;-65
2023/08/05 10:10:13;;;;;;;0.32;0.30;;;24.80;85.20;25.10;100373.00;;;;4987911;27;87974;-65
2023/08/05 10:12:50;;;;;;;0.60;0.30;;;24.80;85.10;25.10;100361.00;;;;4991179;27;88953;-65
2023/08/05 10:15:27;;;;;;;1.15;0.38;;;24.80;85.10;25.10;100358.00;;;;4991700;27;102077;-65
2023/08/05 10:17:53;;;;;;;0.40;0.40;;;24.80;84.90;25.10;100363.00;;;;4992957;27;88020;-64
2023/08/05 10:20:19;;;;;;;1.20;0.52;;;24.80;84.40;25.00;100359.00;;;;4989981;28;88808;-66
2023/08/05 10:23:03;;;;;;;0.55;0.35;;;24.80;84.40;24.90;100362.00;;;;4991680;27;87258;-64
2023/08/05 10:25:58;;;;;;;0.63;0.50;;;24.70;84.00;24.80;100349.00;;;;4995169;27;87713;-65
2023/08/05 10:28:24;;;;;;;0.32;0.28;;;24.60;84.00;24.80;100351.00;;;;4994484;27;97473;-64
2023/08/05 10:30:50;;;;;;;0.75;0.55;;;24.60;84.10;24.70;100348.00;;;;4992242;27;97411;-65
2023/08/05 10:33:17;;;;;;;0.50;0.50;;;24.50;84.10;24.70;100345.00;;;;4997537;27;105479;-65
2023/08/05 10:35:44;;;;;;;0.50;0.30;;;24.40;84.00;24.60;100348.00;;;;4995323;27;89055;-65
2023/08/05 10:38:19;;;;;;;0.98;0.40;;;24.40;84.20;24.50;100346.00;;;;4989213;28;87789;-66
2023/08/05 10:40:49;;;;;;;0.50;0.50;;;24.30;84.10;24.50;100337.00;;;;4995242;27;88774;-65